| time (UTC) | temp C | wind direction | speed KPH | gust KPH | rain 1hr cm | rain 24hr cm | rain mn cm | humidity % | barometer mb |
| 20260509064533 | 12 | 227 | 1.6 | 6.4 | 0.15 | 2.34 | 0.86 | 95 | 1008.1 |
| 20260509064017 | 12 | 0 | 0.0 | 4.8 | 0.20 | 2.34 | 0.86 | 95 | 1008.1 |
| 20260509063517 | 12 | 303 | 0.0 | 6.4 | 0.25 | 2.34 | 0.86 | 95 | 1008.2 |
| 20260509063036 | 12 | 274 | 0.0 | 6.4 | 0.33 | 2.34 | 0.86 | 95 | 1008.1 |
| 20260509062518 | 12 | 0 | 1.6 | 6.4 | 0.36 | 2.34 | 0.86 | 95 | 1008.1 |
| 20260509062018 | 12 | 209 | 1.6 | 11.3 | 0.38 | 2.34 | 0.86 | 95 | 1008.2 |
| 20260509061542 | 12 | 277 | 1.6 | 11.3 | 0.36 | 2.31 | 0.84 | 95 | 1008.3 |
| 20260509061017 | 12 | 241 | 1.6 | 11.3 | 0.36 | 2.29 | 0.81 | 95 | 1008.6 |
| 20260509060517 | 12 | 180 | 1.6 | 11.3 | 0.36 | 2.26 | 0.79 | 95 | 1008.8 |
| 20260509060036 | 12 | 210 | 1.6 | 11.3 | 0.38 | 2.26 | 0.79 | 95 | 1008.8 |
| 20260509055525 | 12 | 0 | 1.6 | 12.9 | 0.38 | 2.24 | 0.76 | 95 | 1009.0 |
| 20260509055019 | 12 | 0 | 1.6 | 12.9 | 0.41 | 2.21 | 0.74 | 95 | 1009.1 |
| 20260509054541 | 12 | 241 | 3.2 | 11.3 | 0.41 | 2.18 | 0.71 | 95 | 1009.3 |
| 20260509054018 | 12 | 170 | 3.2 | 11.3 | 0.36 | 2.11 | 0.64 | 95 | 1009.3 |
| 20260509053518 | 12 | 249 | 3.2 | 11.3 | 0.36 | 2.06 | 0.58 | 95 | 1009.3 |
| 20260509053051 | 12 | 0 | 1.6 | 11.3 | 0.33 | 2.01 | 0.53 | 95 | 1009.3 |
| 20260509052518 | 12 | 292 | 3.2 | 9.7 | 0.36 | 1.98 | 0.51 | 95 | 1009.3 |
| 20260509052016 | 12 | 248 | 1.6 | 8.0 | 0.33 | 1.96 | 0.48 | 95 | 1009.3 |
| 20260509051534 | 12 | 199 | 1.6 | 8.0 | 0.36 | 1.96 | 0.48 | 95 | 1009.2 |
| 20260509051018 | 12 | 232 | 1.6 | 8.0 | 0.33 | 1.91 | 0.43 | 95 | 1009.3 |
| 20260509050516 | 12 | 0 | 1.6 | 8.0 | 0.38 | 1.91 | 0.43 | 95 | 1009.1 |
| 20260509050033 | 12 | 268 | 1.6 | 8.0 | 0.38 | 1.88 | 0.41 | 95 | 1009.2 |
| 20260509045516 | 12 | 0 | 1.6 | 8.0 | 0.41 | 1.85 | 0.38 | 95 | 1009.1 |
| 20260509045016 | 12 | 212 | 1.6 | 8.0 | 0.38 | 1.80 | 0.33 | 95 | 1009.2 |
| 20260509044538 | 12 | 205 | 1.6 | 8.0 | 0.38 | 1.78 | 0.30 | 95 | 1009.2 |
| 20260509044013 | 12 | 0 | 1.6 | 12.9 | 0.38 | 1.75 | 0.28 | 95 | 1009.1 |
| 20260509043514 | 12 | 209 | 1.6 | 12.9 | 0.33 | 1.70 | 0.23 | 95 | 1009.2 |
| 20260509043030 | 12 | 276 | 1.6 | 6.4 | 0.33 | 1.68 | 0.20 | 95 | 1009.2 |
| 20260509042514 | 12 | 219 | 0.0 | 4.8 | 0.30 | 1.63 | 0.15 | 95 | 1009.2 |
| 20260509042014 | 12 | 0 | 1.6 | 6.4 | 0.33 | 1.63 | 0.15 | 95 | 1009.1 |
| 20260509041534 | 12 | 188 | 1.6 | 6.4 | 0.30 | 1.60 | 0.13 | 95 | 1009.0 |
| 20260509041014 | 12 | 304 | 1.6 | 9.7 | 0.28 | 1.57 | 0.10 | 95 | 1009.1 |
| 20260509040514 | 12 | 202 | 3.2 | 9.7 | 0.23 | 1.52 | 0.05 | 95 | 1009.2 |
| 20260509040037 | 12 | 169 | 3.2 | 8.0 | 0.18 | 1.47 | 0.00 | 95 | 1009.3 |
| 20260509035517 | 12 | 0 | 3.2 | 9.7 | 0.15 | 1.45 | 1.45 | 95 | 1009.4 |
| 20260509035015 | 12 | 267 | 1.6 | 9.7 | 0.10 | 1.40 | 1.40 | 95 | 1009.4 |
| 20260509034535 | 12 | 212 | 1.6 | 8.0 | 0.13 | 1.40 | 1.40 | 95 | 1009.3 |
| 20260509034014 | 12 | 274 | 1.6 | 4.8 | 0.13 | 1.37 | 1.37 | 95 | 1009.4 |
| 20260509033516 | 12 | 279 | 1.6 | 4.8 | 0.13 | 1.37 | 1.37 | 95 | 1009.4 |
| 20260509033033 | 12 | 0 | 1.6 | 9.7 | 0.13 | 1.32 | 1.32 | 94 | 1009.3 |
| 20260509032515 | 12 | 214 | 1.6 | 9.7 | 0.13 | 1.32 | 1.32 | 94 | 1009.4 |
| 20260509032020 | 12 | 187 | 1.6 | 8.0 | 0.13 | 1.30 | 1.30 | 94 | 1009.3 |
| 20260509031537 | 12 | 273 | 0.0 | 8.0 | 0.15 | 1.30 | 1.30 | 94 | 1009.4 |
| 20260509031016 | 12 | 180 | 1.6 | 8.0 | 0.18 | 1.30 | 1.30 | 94 | 1009.5 |
| 20260509030516 | 12 | 223 | 3.2 | 8.0 | 0.20 | 1.30 | 1.30 | 94 | 1009.7 |
| 20260509030030 | 12 | 209 | 1.6 | 4.8 | 0.25 | 1.30 | 1.30 | 94 | 1009.7 |
| 20260509025513 | 12 | 193 | 0.0 | 4.8 | 0.30 | 1.30 | 1.30 | 94 | 1009.7 |
| 20260509025013 | 12 | 211 | 1.6 | 4.8 | 0.36 | 1.30 | 1.30 | 94 | 1009.5 |
| 20260509024536 | 12 | 215 | 1.6 | 4.8 | 0.36 | 1.27 | 1.27 | 94 | 1009.5 |
| 20260509024018 | 12 | 153 | 1.6 | 6.4 | 0.33 | 1.24 | 1.24 | 94 | 1009.8 |
| 20260509023518 | 12 | 194 | 1.6 | 6.4 | 0.36 | 1.24 | 1.24 | 94 | 1009.9 |
| 20260509023035 | 12 | 249 | 3.2 | 6.4 | 0.36 | 1.22 | 1.22 | 94 | 1010.0 |
| 20260509022522 | 12 | 0 | 1.6 | 4.8 | 0.33 | 1.19 | 1.19 | 94 | 1010.3 |
| 20260509022016 | 12 | 192 | 1.6 | 6.4 | 0.33 | 1.17 | 1.17 | 94 | 1010.1 |
| 20260509021534 | 12 | 238 | 1.6 | 8.0 | 0.30 | 1.14 | 1.14 | 94 | 1010.1 |
| 20260509021016 | 12 | 0 | 1.6 | 9.7 | 0.28 | 1.12 | 1.12 | 94 | 1010.1 |
| 20260509020521 | 12 | 186 | 1.6 | 9.7 | 0.23 | 1.07 | 1.07 | 94 | 1010.0 |
| 20260509020039 | 12 | 220 | 1.6 | 6.4 | 0.20 | 1.04 | 1.04 | 94 | 1010.0 |
| 20260509015518 | 12 | 0 | 1.6 | 8.0 | 0.18 | 0.99 | 0.99 | 94 | 1010.0 |
| 20260509015020 | 12 | 207 | 1.6 | 8.0 | 0.13 | 0.94 | 0.94 | 94 | 1009.9 |
| 20260509014536 | 12 | 216 | 3.2 | 6.4 | 0.10 | 0.91 | 0.91 | 94 | 1009.8 |
| 20260509014021 | 12 | 206 | 1.6 | 9.7 | 0.10 | 0.91 | 0.91 | 94 | 1009.8 |
| 20260509013521 | 12 | 236 | 3.2 | 9.7 | 0.08 | 0.89 | 0.89 | 94 | 1009.8 |
| 20260509013034 | 12 | 209 | 1.6 | 8.0 | 0.08 | 0.86 | 0.86 | 94 | 1009.8 |
| 20260509012518 | 12 | 0 | 0.0 | 4.8 | 0.05 | 0.84 | 0.84 | 94 | 1009.9 |
| 20260509012018 | 12 | 0 | 1.6 | 4.8 | 0.08 | 0.84 | 0.84 | 94 | 1009.7 |
| 20260509011532 | 12 | 238 | 1.6 | 4.8 | 0.10 | 0.84 | 0.84 | 94 | 1009.7 |
| 20260509011017 | 12 | 259 | 1.6 | 4.8 | 0.13 | 0.84 | 0.84 | 93 | 1009.6 |
| 20260509010515 | 12 | 198 | 1.6 | 4.8 | 0.15 | 0.84 | 0.84 | 93 | 1009.6 |
| 20260509010034 | 12 | 225 | 0.0 | 4.8 | 0.20 | 0.84 | 0.84 | 93 | 1009.6 |
| 20260509005520 | 12 | 213 | 0.0 | 4.8 | 0.30 | 0.81 | 0.81 | 93 | 1009.5 |
| 20260509005017 | 12 | 0 | 0.0 | 4.8 | 0.33 | 0.81 | 0.81 | 93 | 1009.4 |
| 20260509004537 | 12 | 188 | 1.6 | 4.8 | 0.36 | 0.81 | 0.81 | 93 | 1009.2 |
| 20260509004018 | 12 | 0 | 0.0 | 4.8 | 0.38 | 0.81 | 0.81 | 93 | 1009.4 |
| 20260509003517 | 12 | 276 | 0.0 | 6.4 | 0.41 | 0.81 | 0.81 | 93 | 1009.4 |
| 20260509003039 | 12 | 221 | 0.0 | 6.4 | 0.41 | 0.79 | 0.79 | 93 | 1009.2 |
| 20260509002519 | 12 | 0 | 0.0 | 6.4 | 0.41 | 0.79 | 0.79 | 93 | 1009.4 |
| 20260509002018 | 12 | 263 | 1.6 | 6.4 | 0.41 | 0.76 | 0.76 | 93 | 1009.6 |
| 20260509001532 | 12 | 0 | 1.6 | 6.4 | 0.41 | 0.74 | 0.74 | 93 | 1009.7 |
| 20260509001020 | 12 | 340 | 1.6 | 6.4 | 0.38 | 0.69 | 0.69 | 92 | 1009.8 |
| 20260509000517 | 12 | 284 | 1.6 | 6.4 | 0.38 | 0.66 | 0.66 | 92 | 1009.8 |
| 20260509000034 | 12 | 275 | 1.6 | 6.4 | 0.38 | 0.64 | 0.64 | 92 | 1009.7 |
| 20260508235518 | 12 | 0 | 1.6 | 4.8 | 0.28 | 0.51 | 0.51 | 92 | 1009.7 |
| 20260508235019 | 13 | 331 | 1.6 | 4.8 | 0.28 | 0.48 | 0.48 | 92 | 1009.7 |
| 20260508234540 | 13 | 0 | 0.0 | 4.8 | 0.28 | 0.46 | 0.46 | 92 | 1009.7 |
| 20260508234018 | 13 | 187 | 0.0 | 3.2 | 0.28 | 0.43 | 0.43 | 92 | 1009.7 |
| 20260508233518 | 13 | 0 | 0.0 | 4.8 | 0.28 | 0.41 | 0.41 | 92 | 1009.8 |
| 20260508233037 | 13 | 333 | 1.6 | 4.8 | 0.28 | 0.38 | 0.38 | 92 | 1009.8 |
| 20260508232518 | 13 | 327 | 0.0 | 4.8 | 0.28 | 0.36 | 0.36 | 92 | 1009.9 |
| 20260508232018 | 13 | 0 | 1.6 | 4.8 | 0.28 | 0.36 | 0.36 | 91 | 1010.0 |
| 20260508231540 | 13 | 24 | 0.0 | 4.8 | 0.28 | 0.33 | 0.33 | 91 | 1010.1 |
| 20260508231018 | 13 | 329 | 1.6 | 4.8 | 0.25 | 0.30 | 0.30 | 91 | 1010.0 |
| 20260508230517 | 13 | 0 | 1.6 | 3.2 | 0.23 | 0.28 | 0.28 | 90 | 1009.7 |
| 20260508230039 | 13 | 0 | 0.0 | 3.2 | 0.20 | 0.25 | 0.25 | 90 | 1009.9 |
| 20260508225521 | 13 | 0 | 1.6 | 3.2 | 0.18 | 0.20 | 0.20 | 89 | 1010.0 |
| 20260508225019 | 13 | 5 | 0.0 | 8.0 | 0.18 | 0.20 | 0.20 | 89 | 1009.8 |
| 20260508224534 | 13 | 0 | 0.0 | 8.0 | 0.18 | 0.18 | 0.18 | 88 | 1009.8 |
| 20260508224017 | 13 | 334 | 1.6 | 8.0 | 0.15 | 0.15 | 0.15 | 87 | 1009.9 |
| 20260508223517 | 13 | 30 | 3.2 | 9.7 | 0.13 | 0.13 | 0.13 | 86 | 1009.9 |
| 20260508223040 | 13 | 12 | 3.2 | 9.7 | 0.10 | 0.10 | 0.10 | 85 | 1010.0 |
| 20260508222518 | 14 | 334 | 1.6 | 12.9 | 0.08 | 0.08 | 0.08 | 83 | 1010.0 |
| 20260508222021 | 14 | 360 | 4.8 | 12.9 | 0.08 | 0.08 | 0.08 | 81 | 1010.0 |
| 20260508221538 | 15 | 347 | 1.6 | 8.0 | 0.05 | 0.05 | 0.05 | 80 | 1009.9 |
| 20260508221019 | 15 | 339 | 3.2 | 8.0 | 0.05 | 0.05 | 0.05 | 78 | 1009.8 |
| 20260508220517 | 15 | 320 | 1.6 | 6.4 | 0.05 | 0.05 | 0.05 | 76 | 1009.8 |
| 20260508220039 | 15 | 0 | 1.6 | 6.4 | 0.05 | 0.05 | 0.05 | 75 | 1009.8 |
| 20260508215522 | 15 | 308 | 1.6 | 17.7 | 0.03 | 0.03 | 0.03 | 72 | 1009.7 |
| 20260508215018 | 16 | 294 | 4.8 | 17.7 | 0.03 | 0.03 | 0.03 | 69 | 1009.4 |
| 20260508214545 | 16 | 307 | 3.2 | 6.4 | 0.00 | 0.00 | 0.00 | 68 | 1009.3 |
| 20260508214018 | 16 | 0 | 1.6 | 8.0 | 0.00 | 0.00 | 0.00 | 67 | 1009.4 |
| 20260508213517 | 16 | 0 | 1.6 | 8.0 | 0.00 | 0.00 | 0.00 | 66 | 1009.3 |
| 20260508213031 | 16 | 315 | 3.2 | 14.5 | 0.00 | 0.00 | 0.00 | 64 | 1009.3 |
| 20260508212518 | 16 | 0 | 3.2 | 17.7 | 0.00 | 0.00 | 0.00 | 63 | 1009.4 |
| 20260508212018 | 17 | 292 | 6.4 | 27.4 | 0.00 | 0.00 | 0.00 | 60 | 1009.3 |
| 20260508211541 | 17 | 286 | 8.0 | 27.4 | 0.00 | 0.00 | 0.00 | 58 | 1009.4 |
| 20260508211020 | 17 | 119 | 6.4 | 16.1 | 0.00 | 0.00 | 0.00 | 57 | 1009.3 |
| 20260508210518 | 17 | 146 | 3.2 | 12.9 | 0.00 | 0.00 | 0.00 | 61 | 1009.3 |
| 20260508210035 | 17 | 161 | 1.6 | 12.9 | 0.00 | 0.00 | 0.00 | 60 | 1009.2 |
| 20260508205517 | 17 | 92 | 1.6 | 12.9 | 0.00 | 0.00 | 0.00 | 59 | 1009.1 |
| 20260508205017 | 18 | 205 | 4.8 | 12.9 | 0.00 | 0.00 | 0.00 | 57 | 1009.2 |
| 20260508204534 | 18 | 334 | 3.2 | 12.9 | 0.00 | 0.00 | 0.00 | 57 | 1009.1 |
| 20260508204017 | 18 | 186 | 3.2 | 11.3 | 0.00 | 0.00 | 0.00 | 55 | 1009.1 |
| 20260508203517 | 18 | 182 | 3.2 | 11.3 | 0.00 | 0.00 | 0.00 | 55 | 1009.2 |
| 20260508203037 | 18 | 153 | 1.6 | 6.4 | 0.00 | 0.00 | 0.00 | 57 | 1009.1 |
| 20260508202515 | 18 | 201 | 0.0 | 6.4 | 0.00 | 0.00 | 0.00 | 58 | 1009.3 |
| 20260508202016 | 18 | 229 | 3.2 | 6.4 | 0.00 | 0.00 | 0.00 | 57 | 1009.2 |
| 20260508201536 | 18 | 0 | 1.6 | 6.4 | 0.00 | 0.00 | 0.00 | 57 | 1009.4 |
| 20260508201018 | 18 | 192 | 3.2 | 8.0 | 0.00 | 0.00 | 0.00 | 56 | 1009.5 |
| 20260508200518 | 18 | 282 | 1.6 | 8.0 | 0.00 | 0.00 | 0.00 | 56 | 1009.6 |
| 20260508200035 | 18 | 293 | 1.6 | 8.0 | 0.00 | 0.00 | 0.00 | 55 | 1009.6 |
| 20260508195517 | 18 | 0 | 1.6 | 8.0 | 0.00 | 0.00 | 0.00 | 56 | 1009.7 |
| 20260508195017 | 18 | 313 | 3.2 | 11.3 | 0.00 | 0.00 | 0.00 | 56 | 1009.8 |
| 20260508194532 | 18 | 243 | 1.6 | 11.3 | 0.00 | 0.00 | 0.00 | 56 | 1009.9 |
| 20260508194017 | 18 | 234 | 1.6 | 8.0 | 0.00 | 0.00 | 0.00 | 55 | 1009.9 |
| 20260508193517 | 18 | 226 | 1.6 | 12.9 | 0.00 | 0.00 | 0.00 | 55 | 1009.9 |
| 20260508193044 | 18 | 215 | 3.2 | 12.9 | 0.00 | 0.00 | 0.00 | 55 | 1010.0 |
| 20260508192518 | 18 | 235 | 1.6 | 12.9 | 0.00 | 0.00 | 0.00 | 55 | 1010.1 |
| 20260508192013 | 18 | 169 | 4.8 | 12.9 | 0.00 | 0.00 | 0.00 | 55 | 1010.2 |
| 20260508191540 | 18 | 318 | 3.2 | 12.9 | 0.00 | 0.00 | 0.00 | 55 | 1010.2 |
| 20260508191016 | 17 | 183 | 3.2 | 11.3 | 0.00 | 0.00 | 0.00 | 57 | 1010.3 |
| 20260508190517 | 17 | 309 | 1.6 | 8.0 | 0.00 | 0.00 | 0.00 | 56 | 1010.4 |
| 20260508190036 | 17 | 178 | 1.6 | 11.3 | 0.00 | 0.00 | 0.00 | 57 | 1010.5 |
| 20260508185518 | 17 | 231 | 4.8 | 14.5 | 0.00 | 0.00 | 0.00 | 55 | 1010.6 |
| 20260508185018 | 17 | 314 | 3.2 | 14.5 | 0.00 | 0.00 | 0.00 | 55 | 1010.7 |
| 20260508184532 | 17 | 184 | 4.8 | 16.1 | 0.00 | 0.00 | 0.00 | 54 | 1010.7 |
| 20260508184017 | 17 | 267 | 3.2 | 16.1 | 0.00 | 0.00 | 0.00 | 54 | 1010.9 |
| 20260508183518 | 18 | 290 | 3.2 | 14.5 | 0.00 | 0.00 | 0.00 | 54 | 1010.8 |
| 20260508183034 | 18 | 323 | 3.2 | 16.1 | 0.00 | 0.00 | 0.00 | 54 | 1010.8 |
| 20260508182518 | 18 | 332 | 3.2 | 17.7 | 0.00 | 0.00 | 0.00 | 54 | 1010.8 |
| 20260508182017 | 18 | 205 | 8.0 | 27.4 | 0.00 | 0.00 | 0.00 | 54 | 1010.9 |
| 20260508181534 | 18 | 261 | 9.7 | 27.4 | 0.00 | 0.00 | 0.00 | 53 | 1011.1 |
| 20260508181017 | 18 | 270 | 4.8 | 14.5 | 0.00 | 0.00 | 0.00 | 53 | 1011.2 |
| 20260508180518 | 18 | 148 | 6.4 | 19.3 | 0.00 | 0.00 | 0.00 | 52 | 1011.0 |
| 20260508180038 | 17 | 304 | 4.8 | 19.3 | 0.00 | 0.00 | 0.00 | 53 | 1011.2 |
| 20260508175517 | 17 | 123 | 3.2 | 17.7 | 0.00 | 0.00 | 0.00 | 53 | 1011.2 |
| 20260508175017 | 17 | 243 | 4.8 | 17.7 | 0.00 | 0.00 | 0.00 | 53 | 1011.2 |
| 20260508174539 | 17 | 5 | 4.8 | 19.3 | 0.00 | 0.00 | 0.00 | 52 | 1011.2 |
| 20260508174017 | 18 | 264 | 6.4 | 19.3 | 0.00 | 0.00 | 0.00 | 51 | 1011.2 |
| 20260508173515 | 18 | 162 | 6.4 | 17.7 | 0.00 | 0.00 | 0.00 | 51 | 1011.2 |
| 20260508173035 | 18 | 250 | 4.8 | 12.9 | 0.00 | 0.00 | 0.00 | 53 | 1011.3 |
| 20260508172518 | 19 | 239 | 4.8 | 16.1 | 0.00 | 0.00 | 0.00 | 52 | 1011.3 |
| 20260508172018 | 19 | 178 | 6.4 | 17.7 | 0.00 | 0.00 | 0.00 | 53 | 1011.3 |
| 20260508171536 | 19 | 231 | 6.4 | 17.7 | 0.00 | 0.00 | 0.00 | 52 | 1011.4 |
| 20260508171017 | 19 | 231 | 3.2 | 19.3 | 0.00 | 0.00 | 0.00 | 53 | 1011.5 |
| 20260508170517 | 20 | 206 | 6.4 | 19.3 | 0.00 | 0.00 | 0.00 | 55 | 1011.6 |
| 20260508170033 | 19 | 315 | 6.4 | 19.3 | 0.00 | 0.00 | 0.00 | 53 | 1011.7 |
| 20260508165515 | 19 | 297 | 3.2 | 19.3 | 0.00 | 0.00 | 0.00 | 54 | 1011.7 |
| 20260508165017 | 18 | 199 | 6.4 | 19.3 | 0.00 | 0.00 | 0.00 | 56 | 1011.8 |
| 20260508164537 | 18 | 103 | 6.4 | 17.7 | 0.00 | 0.00 | 0.00 | 53 | 1011.9 |
| 20260508164017 | 17 | 308 | 8.0 | 17.7 | 0.00 | 0.00 | 0.00 | 53 | 1012.2 |
| 20260508163517 | 17 | 260 | 3.2 | 11.3 | 0.00 | 0.00 | 0.00 | 55 | 1012.3 |
| 20260508163036 | 17 | 221 | 1.6 | 16.1 | 0.00 | 0.00 | 0.00 | 57 | 1012.3 |
| 20260508162517 | 18 | 205 | 3.2 | 17.7 | 0.00 | 0.00 | 0.00 | 55 | 1012.3 |
| 20260508162017 | 18 | 236 | 3.2 | 17.7 | 0.00 | 0.00 | 0.00 | 54 | 1012.4 |
| 20260508161535 | 17 | 309 | 6.4 | 17.7 | 0.00 | 0.00 | 0.00 | 54 | 1012.4 |
| 20260508161017 | 17 | 101 | 4.8 | 17.7 | 0.00 | 0.00 | 0.00 | 55 | 1012.4 |
| 20260508160517 | 17 | 173 | 6.4 | 19.3 | 0.00 | 0.00 | 0.00 | 54 | 1012.5 |
| 20260508160037 | 18 | 221 | 8.0 | 19.3 | 0.00 | 0.00 | 0.00 | 55 | 1012.4 |
| 20260508155519 | 17 | 255 | 4.8 | 16.1 | 0.00 | 0.00 | 0.00 | 55 | 1012.4 |
| 20260508155018 | 17 | 238 | 4.8 | 17.7 | 0.00 | 0.00 | 0.00 | 54 | 1012.5 |
| 20260508154532 | 17 | 208 | 3.2 | 17.7 | 0.00 | 0.00 | 0.00 | 54 | 1012.6 |
| 20260508154017 | 17 | 175 | 6.4 | 14.5 | 0.00 | 0.00 | 0.00 | 54 | 1012.6 |
| 20260508153518 | 17 | 239 | 4.8 | 12.9 | 0.00 | 0.00 | 0.00 | 56 | 1012.6 |
| 20260508153036 | 17 | 271 | 4.8 | 16.1 | 0.00 | 0.00 | 0.00 | 55 | 1012.6 |
| 20260508152516 | 17 | 179 | 4.8 | 17.7 | 0.00 | 0.00 | 0.00 | 55 | 1012.7 |
| 20260508152021 | 17 | 175 | 6.4 | 17.7 | 0.00 | 0.00 | 0.00 | 54 | 1012.7 |
| 20260508151533 | 17 | 259 | 8.0 | 17.7 | 0.00 | 0.00 | 0.00 | 53 | 1012.7 |
| 20260508151016 | 17 | 0 | 4.8 | 16.1 | 0.00 | 0.00 | 0.00 | 56 | 1012.7 |
| 20260508150518 | 17 | 306 | 4.8 | 14.5 | 0.00 | 0.00 | 0.00 | 56 | 1012.8 |
| 20260508150032 | 17 | 294 | 3.2 | 17.7 | 0.00 | 0.00 | 0.00 | 54 | 1012.8 |
| 20260508145517 | 17 | 192 | 6.4 | 20.9 | 0.00 | 0.00 | 0.00 | 54 | 1012.9 |
| 20260508145016 | 17 | 138 | 4.8 | 20.9 | 0.00 | 0.00 | 0.00 | 56 | 1012.8 |
| 20260508144537 | 17 | 96 | 6.4 | 20.9 | 0.00 | 0.00 | 0.00 | 54 | 1012.9 |
| 20260508144015 | 17 | 285 | 4.8 | 14.5 | 0.00 | 0.00 | 0.00 | 56 | 1012.9 |
| 20260508143518 | 17 | 194 | 6.4 | 14.5 | 0.00 | 0.00 | 0.00 | 55 | 1013.0 |
| 20260508143034 | 16 | 254 | 3.2 | 17.7 | 0.00 | 0.00 | 0.00 | 57 | 1013.0 |
| 20260508142517 | 16 | 261 | 8.0 | 20.9 | 0.00 | 0.00 | 0.00 | 56 | 1013.0 |
| 20260508142015 | 16 | 193 | 6.4 | 20.9 | 0.00 | 0.00 | 0.00 | 55 | 1013.0 |
| 20260508141536 | 16 | 214 | 4.8 | 17.7 | 0.00 | 0.00 | 0.00 | 57 | 1013.0 |
| 20260508141016 | 16 | 263 | 4.8 | 17.7 | 0.00 | 0.00 | 0.00 | 56 | 1013.0 |
| 20260508140516 | 16 | 259 | 6.4 | 17.7 | 0.00 | 0.00 | 0.00 | 56 | 1013.2 |
| 20260508140035 | 16 | 194 | 3.2 | 19.3 | 0.00 | 0.00 | 0.00 | 57 | 1013.2 |
| 20260508135516 | 15 | 272 | 8.0 | 19.3 | 0.00 | 0.00 | 0.00 | 56 | 1013.3 |
| 20260508135016 | 15 | 27 | 4.8 | 17.7 | 0.00 | 0.00 | 0.00 | 56 | 1013.2 |
| 20260508134535 | 15 | 175 | 6.4 | 20.9 | 0.00 | 0.00 | 0.00 | 55 | 1013.2 |
| 20260508134017 | 15 | 310 | 3.2 | 20.9 | 0.00 | 0.00 | 0.00 | 57 | 1013.3 |
| 20260508133517 | 15 | 115 | 4.8 | 20.9 | 0.00 | 0.00 | 0.00 | 56 | 1013.3 |
| 20260508133034 | 15 | 360 | 4.8 | 17.7 | 0.00 | 0.00 | 0.00 | 57 | 1013.4 |
| 20260508132515 | 15 | 242 | 6.4 | 19.3 | 0.00 | 0.00 | 0.00 | 56 | 1013.4 |
| 20260508132015 | 14 | 311 | 6.4 | 19.3 | 0.00 | 0.00 | 0.00 | 57 | 1013.5 |
| 20260508131539 | 14 | 296 | 4.8 | 17.7 | 0.00 | 0.00 | 0.00 | 57 | 1013.4 |
| 20260508131018 | 14 | 166 | 3.2 | 16.1 | 0.00 | 0.00 | 0.00 | 57 | 1013.4 |
| 20260508130519 | 13 | 307 | 4.8 | 16.1 | 0.00 | 0.00 | 0.00 | 57 | 1013.3 |
| 20260508130036 | 13 | 202 | 4.8 | 16.1 | 0.00 | 0.00 | 0.00 | 58 | 1013.3 |
| 20260508125519 | 13 | 258 | 6.4 | 16.1 | 0.00 | 0.00 | 0.00 | 57 | 1013.2 |
| 20260508125016 | 13 | 196 | 6.4 | 16.1 | 0.00 | 0.00 | 0.00 | 58 | 1013.2 |
| 20260508124534 | 13 | 175 | 3.2 | 14.5 | 0.00 | 0.00 | 0.00 | 58 | 1013.4 |
| 20260508124019 | 13 | 242 | 4.8 | 20.9 | 0.00 | 0.00 | 0.00 | 59 | 1013.4 |
| 20260508123517 | 12 | 198 | 3.2 | 20.9 | 0.00 | 0.00 | 0.00 | 59 | 1013.4 |
| 20260508123034 | 12 | 234 | 6.4 | 20.9 | 0.00 | 0.00 | 0.00 | 59 | 1013.6 |
| 20260508122516 | 12 | 205 | 4.8 | 12.9 | 0.00 | 0.00 | 0.00 | 60 | 1013.6 |
| 20260508122017 | 12 | 219 | 3.2 | 12.9 | 0.00 | 0.00 | 0.00 | 60 | 1013.5 |
| 20260508121535 | 12 | 176 | 1.6 | 11.3 | 0.00 | 0.00 | 0.00 | 61 | 1013.6 |
| 20260508121018 | 11 | 291 | 3.2 | 11.3 | 0.00 | 0.00 | 0.00 | 61 | 1013.5 |
| 20260508120516 | 11 | 180 | 3.2 | 11.3 | 0.00 | 0.00 | 0.00 | 61 | 1013.4 |
| 20260508120040 | 11 | 286 | 3.2 | 9.7 | 0.00 | 0.00 | 0.00 | 62 | 1013.4 |
| 20260508115517 | 11 | 167 | 3.2 | 9.7 | 0.00 | 0.00 | 0.00 | 62 | 1013.3 |
| 20260508115017 | 11 | 229 | 4.8 | 8.0 | 0.00 | 0.00 | 0.00 | 62 | 1013.3 |
| 20260508114541 | 11 | 150 | 3.2 | 8.0 | 0.00 | 0.00 | 0.00 | 62 | 1013.3 |
| 20260508114018 | 10 | 193 | 3.2 | 9.7 | 0.00 | 0.00 | 0.00 | 63 | 1013.2 |
| 20260508113517 | 10 | 247 | 3.2 | 9.7 | 0.00 | 0.00 | 0.00 | 63 | 1013.2 |
| 20260508113041 | 10 | 69 | 1.6 | 6.4 | 0.00 | 0.00 | 0.00 | 64 | 1013.2 |
| 20260508112517 | 10 | 291 | 1.6 | 6.4 | 0.00 | 0.00 | 0.00 | 64 | 1013.2 |
| 20260508112019 | 10 | 211 | 1.6 | 6.4 | 0.00 | 0.00 | 0.00 | 65 | 1013.2 |
| 20260508111542 | 9 | 250 | 1.6 | 6.4 | 0.00 | 0.00 | 0.00 | 65 | 1013.0 |
| 20260508111016 | 9 | 211 | 1.6 | 6.4 | 0.00 | 0.00 | 0.00 | 65 | 1012.9 |
| 20260508110517 | 9 | 287 | 1.6 | 6.4 | 0.00 | 0.00 | 0.00 | 65 | 1013.0 |
| 20260508110033 | 9 | 217 | 1.6 | 8.0 | 0.00 | 0.00 | 0.00 | 65 | 1012.9 |
| 20260508105518 | 9 | 259 | 1.6 | 9.7 | 0.00 | 0.00 | 0.00 | 65 | 1012.9 |
| 20260508105020 | 9 | 246 | 1.6 | 9.7 | 0.00 | 0.00 | 0.00 | 65 | 1012.9 |
| 20260508104531 | 9 | 242 | 1.6 | 4.8 | 0.00 | 0.00 | 0.00 | 65 | 1012.8 |
| 20260508104017 | 9 | 246 | 1.6 | 6.4 | 0.00 | 0.00 | 0.00 | 65 | 1012.9 |
| 20260508103516 | 9 | 0 | 0.0 | 6.4 | 0.00 | 0.00 | 0.00 | 65 | 1012.9 |
| 20260508103035 | 9 | 182 | 1.6 | 6.4 | 0.00 | 0.00 | 0.00 | 65 | 1012.8 |
| 20260508102517 | 9 | 178 | 1.6 | 6.4 | 0.00 | 0.00 | 0.00 | 65 | 1012.8 |
| 20260508102017 | 9 | 247 | 0.0 | 6.4 | 0.00 | 0.00 | 0.00 | 65 | 1012.8 |
| 20260508101531 | 9 | 254 | 0.0 | 6.4 | 0.00 | 0.00 | 0.00 | 64 | 1012.7 |
| 20260508101017 | 10 | 213 | 1.6 | 6.4 | 0.00 | 0.00 | 0.00 | 64 | 1012.7 |
| 20260508100517 | 10 | 242 | 1.6 | 6.4 | 0.00 | 0.00 | 0.00 | 63 | 1012.7 |
| 20260508100035 | 10 | 281 | 1.6 | 6.4 | 0.00 | 0.00 | 0.00 | 63 | 1012.7 |
| 20260508095517 | 10 | 244 | 1.6 | 6.4 | 0.00 | 0.00 | 0.00 | 63 | 1012.7 |
| 20260508095017 | 10 | 139 | 3.2 | 8.0 | 0.00 | 0.00 | 0.00 | 63 | 1012.7 |
| 20260508094535 | 10 | 239 | 1.6 | 8.0 | 0.00 | 0.00 | 0.00 | 63 | 1012.7 |
| 20260508094016 | 10 | 178 | 1.6 | 6.4 | 0.00 | 0.00 | 0.00 | 64 | 1012.7 |
| 20260508093518 | 10 | 209 | 1.6 | 9.7 | 0.00 | 0.00 | 0.00 | 64 | 1012.8 |
| 20260508093033 | 10 | 250 | 1.6 | 9.7 | 0.00 | 0.00 | 0.00 | 64 | 1012.8 |
| 20260508092515 | 10 | 244 | 3.2 | 9.7 | 0.00 | 0.00 | 0.00 | 65 | 1012.9 |
| 20260508092015 | 10 | 240 | 0.0 | 4.8 | 0.00 | 0.00 | 0.00 | 65 | 1012.9 |
| 20260508091538 | 10 | 270 | 0.0 | 4.8 | 0.00 | 0.00 | 0.00 | 63 | 1012.8 |
| 20260508091014 | 10 | 286 | 1.6 | 4.8 | 0.00 | 0.00 | 0.00 | 63 | 1012.9 |
| 20260508090517 | 10 | 0 | 0.0 | 4.8 | 0.00 | 0.00 | 0.00 | 62 | 1012.9 |
| 20260508090035 | 11 | 227 | 0.0 | 11.3 | 0.00 | 0.00 | 0.00 | 62 | 1013.0 |
| 20260508085515 | 11 | 284 | 1.6 | 11.3 | 0.00 | 0.00 | 0.00 | 63 | 1013.0 |
| 20260508085016 | 11 | 221 | 0.0 | 3.2 | 0.00 | 0.00 | 0.00 | 64 | 1013.1 |
| 20260508084532 | 11 | 0 | 0.0 | 3.2 | 0.00 | 0.00 | 0.00 | 64 | 1013.0 |
| 20260508084020 | 11 | 0 | 0.0 | 4.8 | 0.00 | 0.00 | 0.00 | 65 | 1013.0 |
| 20260508083518 | 11 | 259 | 0.0 | 4.8 | 0.00 | 0.00 | 0.00 | 64 | 1013.1 |
| 20260508083037 | 11 | 251 | 0.0 | 6.4 | 0.00 | 0.00 | 0.00 | 64 | 1013.3 |
| 20260508082517 | 11 | 0 | 1.6 | 6.4 | 0.00 | 0.00 | 0.00 | 63 | 1013.4 |
| 20260508082014 | 11 | 182 | 1.6 | 11.3 | 0.00 | 0.00 | 0.00 | 63 | 1013.4 |
| 20260508081544 | 11 | 0 | 1.6 | 11.3 | 0.00 | 0.00 | 0.00 | 62 | 1013.4 |
| 20260508081017 | 11 | 280 | 1.6 | 8.0 | 0.00 | 0.00 | 0.00 | 62 | 1013.4 |
| 20260508080518 | 11 | 226 | 1.6 | 8.0 | 0.00 | 0.00 | 0.00 | 62 | 1013.3 |
| 20260508080034 | 11 | 218 | 1.6 | 9.7 | 0.00 | 0.00 | 0.00 | 62 | 1013.3 |
| 20260508075517 | 11 | 295 | 3.2 | 9.7 | 0.00 | 0.00 | 0.00 | 61 | 1013.3 |
| 20260508075016 | 11 | 297 | 1.6 | 6.4 | 0.00 | 0.00 | 0.00 | 60 | 1013.3 |
| 20260508074534 | 11 | 277 | 3.2 | 6.4 | 0.00 | 0.00 | 0.00 | 60 | 1013.4 |
| 20260508074016 | 11 | 242 | 1.6 | 8.0 | 0.00 | 0.00 | 0.00 | 60 | 1013.4 |
| 20260508073515 | 11 | 288 | 1.6 | 9.7 | 0.00 | 0.00 | 0.00 | 59 | 1013.3 |
| 20260508073034 | 11 | 296 | 1.6 | 9.7 | 0.00 | 0.00 | 0.00 | 60 | 1013.4 |
| 20260508072517 | 11 | 272 | 3.2 | 9.7 | 0.00 | 0.00 | 0.00 | 60 | 1013.3 |
| 20260508072016 | 11 | 182 | 1.6 | 6.4 | 0.00 | 0.00 | 0.00 | 60 | 1013.4 |
| 20260508071530 | 11 | 250 | 0.0 | 6.4 | 0.00 | 0.00 | 0.00 | 60 | 1013.3 |
| 20260508071017 | 11 | 271 | 1.6 | 6.4 | 0.00 | 0.00 | 0.00 | 60 | 1013.3 |
| 20260508070517 | 11 | 255 | 1.6 | 11.3 | 0.00 | 0.00 | 0.00 | 60 | 1013.4 |
| 20260508070036 | 11 | 217 | 0.0 | 11.3 | 0.00 | 0.00 | 0.00 | 60 | 1013.4 |
| 20260508065518 | 11 | 250 | 1.6 | 11.3 | 0.00 | 0.00 | 0.00 | 59 | 1013.3 |
| 20260508065017 | 11 | 213 | 4.8 | 11.3 | 0.00 | 0.00 | 0.00 | 59 | 1013.4 |